createdAt,value
2018-08-03T00:01:29.471Z,21.64
2018-08-03T00:03:58.219Z,21.54
2018-08-03T00:06:26.910Z,21.69
2018-08-03T00:08:55.612Z,21.81
2018-08-03T00:11:24.618Z,21.78
2018-08-03T00:13:53.367Z,21.81
2018-08-03T00:16:22.120Z,21.74
2018-08-03T00:18:50.819Z,21.61
2018-08-03T00:21:19.721Z,21.64
2018-08-03T00:23:49.304Z,21.30
2018-08-03T00:26:18.521Z,21.36
2018-08-03T00:28:47.258Z,21.40
2018-08-03T00:31:15.934Z,21.40
2018-08-03T00:33:44.650Z,21.34
2018-08-03T00:36:13.356Z,21.27
2018-08-03T00:38:42.079Z,21.35
2018-08-03T00:41:10.823Z,21.46
2018-08-03T00:43:39.524Z,21.38
2018-08-03T00:46:08.327Z,21.25
2018-08-03T00:48:36.975Z,21.25
2018-08-03T00:51:05.675Z,21.17
2018-08-03T00:53:34.369Z,21.20
2018-08-03T00:56:03.275Z,21.18
2018-08-03T00:58:32.050Z,21.20
2018-08-03T01:01:00.718Z,21.27
2018-08-03T01:03:29.442Z,21.32
2018-08-03T01:05:58.236Z,21.39
2018-08-03T01:08:27.182Z,21.46
2018-08-03T01:10:56.212Z,21.51
2018-08-03T01:13:24.924Z,21.50
2018-08-03T01:15:53.652Z,21.48
2018-08-03T01:18:22.345Z,21.47
2018-08-03T01:20:51.040Z,21.51
2018-08-03T01:23:19.772Z,21.54
2018-08-03T01:25:48.458Z,21.59
2018-08-03T01:28:17.187Z,21.60
2018-08-03T01:30:45.936Z,21.60
2018-08-03T01:33:14.791Z,21.73
2018-08-03T01:35:43.502Z,21.66
2018-08-03T01:38:12.195Z,21.42
2018-08-03T01:40:40.997Z,21.20
2018-08-03T01:43:09.867Z,20.80
2018-08-03T01:45:38.570Z,20.75
2018-08-03T01:48:07.243Z,20.43
2018-08-03T01:50:35.935Z,20.26
2018-08-03T01:53:04.620Z,20.47
2018-08-03T01:55:33.323Z,20.39
2018-08-03T01:58:02.372Z,20.47
2018-08-03T02:00:31.107Z,20.56
2018-08-03T02:02:59.878Z,20.43
2018-08-03T02:05:28.614Z,20.27
2018-08-03T02:07:57.366Z,20.31
2018-08-03T02:10:26.058Z,20.21
2018-08-03T02:12:54.766Z,20.16
2018-08-03T02:15:23.509Z,20.10
2018-08-03T02:17:52.194Z,20.03
2018-08-03T02:20:20.936Z,20.13
2018-08-03T02:22:49.649Z,20.13
2018-08-03T02:25:19.117Z,20.13
2018-08-03T02:27:51.679Z,19.94
2018-08-03T02:30:20.393Z,19.76
2018-08-03T02:32:49.083Z,19.71
2018-08-03T02:35:17.831Z,19.61
2018-08-03T02:37:46.504Z,19.72
2018-08-03T02:40:15.360Z,19.75
2018-08-03T02:42:44.026Z,19.88
2018-08-03T02:45:12.735Z,19.72
2018-08-03T02:47:41.433Z,19.74
2018-08-03T02:50:10.149Z,19.77
2018-08-03T02:52:39.213Z,19.88
2018-08-03T02:55:07.960Z,19.63
2018-08-03T02:57:36.656Z,19.42
2018-08-03T03:00:05.491Z,19.57
2018-08-03T03:02:34.198Z,19.75
2018-08-03T03:05:03.310Z,19.55
2018-08-03T03:07:32.080Z,19.56
2018-08-03T03:10:00.861Z,19.37
2018-08-03T03:12:29.695Z,19.52
2018-08-03T03:14:58.429Z,19.70
2018-08-03T03:17:27.099Z,19.79
2018-08-03T03:19:56.424Z,19.63
2018-08-03T03:22:25.196Z,19.70
2018-08-03T03:24:54.004Z,19.81
2018-08-03T03:27:22.767Z,19.66
2018-08-03T03:29:51.455Z,19.58
2018-08-03T03:32:20.174Z,19.63
2018-08-03T03:34:48.924Z,19.87
2018-08-03T03:37:17.618Z,20.00
2018-08-03T03:39:46.398Z,20.13
2018-08-03T03:42:15.115Z,20.14
2018-08-03T03:44:43.874Z,20.14
2018-08-03T03:47:12.597Z,20.19
2018-08-03T03:49:41.352Z,20.25
2018-08-03T03:52:10.236Z,20.13
2018-08-03T03:54:38.927Z,19.87
2018-08-03T03:57:07.717Z,19.98
2018-08-03T03:59:36.479Z,20.07
2018-08-03T04:02:05.753Z,20.07
2018-08-03T04:04:35.007Z,19.96
2018-08-03T04:07:03.839Z,19.71
2018-08-03T04:09:32.712Z,19.62
2018-08-03T04:12:01.457Z,19.60
2018-08-03T04:14:30.204Z,19.65
2018-08-03T04:16:59.008Z,19.80
2018-08-03T04:19:27.752Z,19.76
2018-08-03T04:21:56.545Z,19.82
2018-08-03T04:24:25.376Z,19.70
2018-08-03T04:26:54.207Z,19.60
2018-08-03T04:29:22.931Z,19.67
2018-08-03T04:31:51.674Z,19.59
2018-08-03T04:34:20.405Z,19.67
2018-08-03T04:36:49.317Z,19.71
2018-08-03T04:39:18.087Z,19.61
2018-08-03T04:41:46.896Z,19.67
2018-08-03T04:44:15.837Z,19.81
2018-08-03T04:46:44.597Z,20.00
2018-08-03T04:49:13.367Z,20.03
2018-08-03T04:51:42.100Z,19.96
2018-08-03T04:54:10.921Z,19.96
2018-08-03T04:56:39.650Z,20.16
2018-08-03T04:59:08.396Z,20.17
2018-08-03T05:01:37.148Z,20.22
2018-08-03T05:04:05.891Z,20.19
2018-08-03T05:06:34.732Z,20.29
2018-08-03T05:09:03.552Z,20.43
2018-08-03T05:11:32.308Z,20.48
2018-08-03T05:14:01.044Z,20.58
2018-08-03T05:16:29.754Z,20.76
2018-08-03T05:18:58.703Z,20.74
2018-08-03T05:21:27.434Z,20.89
2018-08-03T05:23:56.181Z,20.94
2018-08-03T05:26:24.883Z,21.04
2018-08-03T05:28:53.717Z,21.10
2018-08-03T05:31:22.510Z,21.27
2018-08-03T05:33:51.369Z,21.23
2018-08-03T05:36:20.097Z,21.40
2018-08-03T05:38:48.772Z,21.39
2018-08-03T05:41:17.551Z,21.50
2018-08-03T05:43:46.294Z,21.72
2018-08-03T05:46:15.040Z,21.72
2018-08-03T05:48:44.099Z,21.70
2018-08-03T05:51:12.806Z,21.69
2018-08-03T05:53:41.614Z,21.83
2018-08-03T05:56:10.496Z,21.91
2018-08-03T05:58:39.617Z,22.17
2018-08-03T06:01:08.408Z,22.38
2018-08-03T06:03:37.176Z,22.38
2018-08-03T06:06:05.903Z,22.50
2018-08-03T06:08:34.609Z,22.73
2018-08-03T06:11:03.309Z,22.92
2018-08-03T06:13:32.328Z,22.97
2018-08-03T06:16:01.181Z,23.07
2018-08-03T06:18:29.889Z,23.11
2018-08-03T06:20:58.661Z,23.29
2018-08-03T06:23:27.546Z,23.35
2018-08-03T06:25:56.598Z,23.47
2018-08-03T06:28:25.421Z,23.58
2018-08-03T06:30:54.084Z,23.71
2018-08-03T06:33:22.817Z,23.80
2018-08-03T06:35:51.443Z,23.95
2018-08-03T06:38:20.244Z,24.18
2018-08-03T06:40:48.980Z,24.36
2018-08-03T06:43:17.738Z,24.45
2018-08-03T06:45:46.429Z,24.73
2018-08-03T06:48:15.231Z,25.07
2018-08-03T06:50:44.014Z,25.39
2018-08-03T06:53:12.726Z,25.74
2018-08-03T06:55:41.381Z,25.67
2018-08-03T06:58:10.074Z,26.24
2018-08-03T07:00:38.803Z,26.41
2018-08-03T07:03:07.496Z,26.66
2018-08-03T07:05:36.208Z,26.64
2018-08-03T07:08:05.116Z,26.97
2018-08-03T07:10:33.824Z,27.32
2018-08-03T07:13:02.604Z,27.69
2018-08-03T07:15:31.612Z,28.15
2018-08-03T07:18:00.334Z,28.39
2018-08-03T07:20:29.117Z,28.20
2018-08-03T07:22:57.764Z,28.38
2018-08-03T07:25:26.428Z,28.49
2018-08-03T07:27:55.292Z,28.87
2018-08-03T07:30:23.919Z,29.04
2018-08-03T07:32:52.647Z,28.95
2018-08-03T07:35:21.412Z,28.95
2018-08-03T07:37:50.285Z,28.83
2018-08-03T07:40:19.065Z,28.77
2018-08-03T07:42:47.798Z,29.13
2018-08-03T07:45:16.507Z,29.23
2018-08-03T07:47:45.184Z,29.36
2018-08-03T07:50:14.949Z,29.88
2018-08-03T07:52:43.768Z,29.63
2018-08-03T07:55:12.767Z,29.67
2018-08-03T07:57:41.663Z,29.81
2018-08-03T08:00:11.202Z,30.03
2018-08-03T08:02:39.989Z,30.15
2018-08-03T08:05:08.757Z,30.06
2018-08-03T08:07:37.445Z,30.61
2018-08-03T08:10:06.519Z,30.09
2018-08-03T08:12:35.182Z,30.23
2018-08-03T08:15:04.299Z,30.30
2018-08-03T08:17:33.312Z,30.40
2018-08-03T08:20:02.060Z,30.67
2018-08-03T08:22:31.038Z,30.77
2018-08-03T08:24:59.821Z,31.05
2018-08-03T08:27:28.513Z,31.26
2018-08-03T08:29:57.458Z,31.14
2018-08-03T08:32:26.409Z,31.05
2018-08-03T08:34:55.185Z,31.40
2018-08-03T08:37:23.873Z,31.88
2018-08-03T08:39:52.774Z,31.71
2018-08-03T08:42:21.525Z,31.88
2018-08-03T08:44:50.205Z,31.67
2018-08-03T08:47:18.866Z,31.89
2018-08-03T08:49:47.599Z,31.89
2018-08-03T08:52:16.342Z,31.60
2018-08-03T08:54:45.461Z,31.96
2018-08-03T08:57:14.210Z,31.92
2018-08-03T08:59:42.919Z,32.08
2018-08-03T09:02:12.014Z,32.58
2018-08-03T09:04:40.926Z,32.94
2018-08-03T09:07:09.584Z,32.43
2018-08-03T09:09:38.332Z,32.27
2018-08-03T09:12:07.364Z,33.42
2018-08-03T09:14:36.148Z,33.23
2018-08-03T09:17:04.934Z,32.93
2018-08-03T09:19:33.817Z,32.99
2018-08-03T09:22:02.568Z,33.43
2018-08-03T09:24:31.313Z,33.71
2018-08-03T09:26:59.997Z,33.62
2018-08-03T09:29:28.729Z,33.43
2018-08-03T09:31:58.166Z,33.02
2018-08-03T09:34:27.060Z,33.09
2018-08-03T09:36:55.813Z,33.76
2018-08-03T09:39:24.611Z,34.22
2018-08-03T09:41:53.374Z,33.81
2018-08-03T09:44:22.041Z,33.97
2018-08-03T09:46:50.735Z,34.65
2018-08-03T09:49:19.457Z,34.74
2018-08-03T09:51:48.083Z,34.94
2018-08-03T09:54:16.765Z,34.31
2018-08-03T09:56:45.430Z,34.64
2018-08-03T09:59:14.129Z,34.61
2018-08-03T10:01:42.889Z,35.35
2018-08-03T10:04:11.628Z,35.50
2018-08-03T10:06:40.299Z,34.99
2018-08-03T10:09:09.308Z,35.54
2018-08-03T10:11:38.035Z,35.50
2018-08-03T10:14:06.745Z,35.25
2018-08-03T10:16:35.428Z,34.94
2018-08-03T10:19:04.177Z,35.87
2018-08-03T10:21:32.860Z,36.38
2018-08-03T10:24:01.706Z,35.74
2018-08-03T10:26:30.433Z,35.69
2018-08-03T10:28:59.133Z,35.39
2018-08-03T10:31:27.924Z,36.19
2018-08-03T10:34:01.727Z,36.16
2018-08-03T10:36:32.118Z,36.13
2018-08-03T10:39:04.631Z,36.24
2018-08-03T10:41:38.012Z,36.21
2018-08-03T10:44:10.077Z,36.00
2018-08-03T10:46:38.924Z,36.41
2018-08-03T10:49:07.680Z,36.31
2018-08-03T10:51:36.445Z,36.25
2018-08-03T10:54:05.111Z,36.38
2018-08-03T10:56:33.795Z,36.06
2018-08-03T10:59:02.460Z,36.81
2018-08-03T11:01:31.238Z,36.47
2018-08-03T11:03:59.814Z,36.75
2018-08-03T11:06:28.534Z,36.44
2018-08-03T11:08:57.245Z,36.31
2018-08-03T11:11:25.953Z,36.82
2018-08-03T11:13:55.418Z,36.91
2018-08-03T11:16:24.125Z,35.89
2018-08-03T11:18:52.854Z,36.34
2018-08-03T11:21:21.648Z,35.90
2018-08-03T11:23:50.360Z,36.51
2018-08-03T11:26:19.123Z,36.26
2018-08-03T11:28:47.884Z,36.44
2018-08-03T11:31:16.690Z,36.56
2018-08-03T11:33:45.734Z,36.03
2018-08-03T11:36:14.421Z,35.98
2018-08-03T11:38:43.169Z,36.61
2018-08-03T11:41:11.979Z,36.47
2018-08-03T11:43:40.833Z,36.44
2018-08-03T11:46:09.581Z,36.40
2018-08-03T11:48:38.255Z,36.66
2018-08-03T11:51:07.118Z,36.40
2018-08-03T11:53:35.852Z,36.15
2018-08-03T11:56:04.655Z,35.86
2018-08-03T11:58:33.383Z,36.21
2018-08-03T12:01:02.433Z,35.98
2018-08-03T12:03:31.120Z,35.86
2018-08-03T12:05:59.801Z,36.04
2018-08-03T12:08:28.736Z,36.77
2018-08-03T12:10:57.403Z,36.29
2018-08-03T12:13:26.093Z,36.34
2018-08-03T12:15:54.758Z,35.66
2018-08-03T12:18:23.421Z,36.09
2018-08-03T12:20:52.212Z,36.46
2018-08-03T12:23:20.908Z,36.47
2018-08-03T12:25:49.594Z,36.54
2018-08-03T12:28:18.268Z,35.70
2018-08-03T12:30:46.955Z,35.54
2018-08-03T12:33:15.745Z,35.69
2018-08-03T12:35:44.938Z,35.57
2018-08-03T12:38:13.801Z,35.60
2018-08-03T12:40:42.518Z,35.57
2018-08-03T12:43:11.204Z,35.71
2018-08-03T12:45:39.931Z,35.40
2018-08-03T12:48:09.198Z,35.34
2018-08-03T12:50:38.745Z,35.33
2018-08-03T12:53:07.830Z,35.80
2018-08-03T12:55:37.778Z,35.89
2018-08-03T12:58:06.648Z,35.74
2018-08-03T13:00:35.999Z,35.86
2018-08-03T13:03:06.303Z,35.50
2018-08-03T13:05:35.378Z,35.99
2018-08-03T13:08:04.240Z,35.31
2018-08-03T13:10:33.175Z,35.82
2018-08-03T13:13:02.093Z,35.20
2018-08-03T13:15:31.013Z,35.34
2018-08-03T13:18:00.013Z,35.04
2018-08-03T13:20:29.683Z,35.30
2018-08-03T13:22:59.572Z,35.39
2018-08-03T13:25:28.279Z,35.59
2018-08-03T13:27:57.179Z,35.48
2018-08-03T13:30:26.679Z,35.64
2018-08-03T13:32:55.598Z,35.66
2018-08-03T13:35:24.910Z,35.74
2018-08-03T13:37:53.681Z,35.90
2018-08-03T13:40:22.401Z,36.14
2018-08-03T13:42:51.544Z,35.92
2018-08-03T13:45:20.368Z,35.86
2018-08-03T13:47:49.176Z,35.78
2018-08-03T13:50:18.206Z,35.93
2018-08-03T13:52:48.597Z,35.59
2018-08-03T13:55:17.367Z,35.48
2018-08-03T13:57:46.780Z,35.41
2018-08-03T14:00:15.521Z,35.54
2018-08-03T14:02:44.687Z,35.45
2018-08-03T14:05:13.412Z,35.16
2018-08-03T14:07:42.334Z,35.16
2018-08-03T14:10:11.261Z,34.82
2018-08-03T14:12:39.939Z,34.92
2018-08-03T14:15:08.640Z,34.76
2018-08-03T14:17:37.362Z,34.78
2018-08-03T14:20:06.962Z,34.97
2018-08-03T14:22:35.664Z,34.75
2018-08-03T14:25:04.325Z,34.90
2018-08-03T14:27:33.059Z,34.74
2018-08-03T14:30:01.840Z,34.76
2018-08-03T14:32:30.498Z,34.77
2018-08-03T14:34:59.229Z,34.52
2018-08-03T14:37:27.879Z,34.82
2018-08-03T14:39:56.570Z,35.07
2018-08-03T14:42:25.391Z,34.66
2018-08-03T14:44:54.125Z,34.78
2018-08-03T14:47:22.806Z,34.70
2018-08-03T14:49:51.508Z,34.54
2018-08-03T14:52:20.243Z,34.42
2018-08-03T14:54:48.953Z,34.31
2018-08-03T14:57:17.912Z,34.42
2018-08-03T14:59:46.820Z,34.55
2018-08-03T15:02:15.594Z,34.56
2018-08-03T15:04:44.353Z,34.11
2018-08-03T15:07:13.084Z,34.08
2018-08-03T15:09:41.887Z,34.15
2018-08-03T15:12:10.646Z,34.41
2018-08-03T15:14:39.339Z,34.14
2018-08-03T15:17:08.214Z,34.10
2018-08-03T15:19:37.223Z,34.31
2018-08-03T15:22:06.177Z,34.34
2018-08-03T15:24:34.816Z,33.77
2018-08-03T15:27:03.882Z,33.86
2018-08-03T15:29:32.951Z,34.17
2018-08-03T15:32:01.657Z,34.06
2018-08-03T15:34:30.358Z,33.92
2018-08-03T15:36:59.228Z,34.00
2018-08-03T15:39:28.155Z,33.96
2018-08-03T15:41:56.870Z,33.66
2018-08-03T15:44:25.744Z,33.77
2018-08-03T15:46:55.572Z,33.64
2018-08-03T15:49:24.609Z,33.92
2018-08-03T15:51:53.479Z,33.71
2018-08-03T15:54:22.272Z,33.66
2018-08-03T15:56:51.458Z,33.73
2018-08-03T15:59:20.153Z,33.42
2018-08-03T16:01:48.921Z,33.27
2018-08-03T16:04:17.779Z,33.58
2018-08-03T16:06:46.548Z,33.58
2018-08-03T16:09:15.411Z,33.60
2018-08-03T16:11:45.339Z,33.25
2018-08-03T16:14:14.069Z,33.08
2018-08-03T16:16:42.947Z,33.02
2018-08-03T16:19:11.624Z,32.84
2018-08-03T16:21:40.392Z,32.60
2018-08-03T16:24:09.172Z,32.47
2018-08-03T16:26:37.945Z,32.66
2018-08-03T16:29:06.839Z,32.43
2018-08-03T16:31:35.557Z,32.31
2018-08-03T16:34:05.784Z,32.01
2018-08-03T16:36:34.476Z,31.78
2018-08-03T16:39:03.511Z,31.58
2018-08-03T16:41:32.364Z,31.45
2018-08-03T16:44:01.016Z,31.40
2018-08-03T16:46:30.605Z,31.42
2018-08-03T16:48:59.256Z,31.42
2018-08-03T16:51:28.019Z,31.25
2018-08-03T16:53:56.771Z,31.23
2018-08-03T16:56:25.539Z,31.00
2018-08-03T16:58:54.280Z,30.70
2018-08-03T17:01:23.524Z,30.55
2018-08-03T17:03:52.519Z,30.42
2018-08-03T17:06:22.747Z,30.48
2018-08-03T17:08:51.601Z,30.01
2018-08-03T17:11:20.318Z,29.95
2018-08-03T17:13:49.075Z,29.95
2018-08-03T17:16:17.861Z,29.58
2018-08-03T17:18:46.619Z,29.46
2018-08-03T17:21:16.020Z,29.45
2018-08-03T17:23:45.099Z,29.50
2018-08-03T17:26:13.921Z,29.53
2018-08-03T17:28:42.609Z,29.44
2018-08-03T17:31:11.338Z,29.46
2018-08-03T17:33:40.080Z,29.38
2018-08-03T17:36:08.887Z,29.34
2018-08-03T17:38:38.044Z,29.26
2018-08-03T17:41:06.923Z,29.27
2018-08-03T17:43:35.712Z,29.23
2018-08-03T17:46:04.925Z,29.09
2018-08-03T17:48:33.819Z,29.19
2018-08-03T17:51:02.705Z,29.19
2018-08-03T17:53:31.460Z,29.20
2018-08-03T17:56:00.131Z,29.12
2018-08-03T17:58:30.228Z,29.06
2018-08-03T18:00:59.181Z,29.15
2018-08-03T18:03:28.119Z,29.08
2018-08-03T18:05:57.050Z,29.01
2018-08-03T18:08:26.131Z,28.94
2018-08-03T18:10:54.880Z,28.88
2018-08-03T18:13:23.580Z,28.78
2018-08-03T18:15:52.373Z,28.78
2018-08-03T18:18:22.093Z,28.80
2018-08-03T18:20:50.857Z,28.91
2018-08-03T18:23:19.646Z,28.84
2018-08-03T18:25:48.506Z,28.83
2018-08-03T18:28:17.269Z,28.74
2018-08-03T18:30:46.435Z,28.74
2018-08-03T18:33:15.200Z,28.65
2018-08-03T18:35:43.980Z,28.50
2018-08-03T18:38:12.740Z,28.53
2018-08-03T18:40:41.736Z,28.53
2018-08-03T18:43:11.058Z,28.60
2018-08-03T18:45:40.607Z,28.60
2018-08-03T18:48:09.589Z,28.59
2018-08-03T18:50:40.209Z,28.48
2018-08-03T18:53:11.346Z,28.39
2018-08-03T18:55:41.608Z,28.26
2018-08-03T18:58:10.661Z,28.37
2018-08-03T19:00:39.511Z,28.38
2018-08-03T19:03:08.322Z,28.28
2018-08-03T19:05:38.420Z,28.25
2018-08-03T19:08:07.244Z,28.38
2018-08-03T19:10:36.365Z,28.43
2018-08-03T19:13:07.514Z,28.33
2018-08-03T19:15:36.824Z,28.20
2018-08-03T19:18:05.644Z,28.15
2018-08-03T19:20:34.388Z,28.24
2018-08-03T19:23:04.659Z,28.10
2018-08-03T19:25:35.034Z,27.88
2018-08-03T19:28:03.980Z,27.98
2018-08-03T19:30:33.983Z,28.08
2018-08-03T19:33:03.525Z,28.04
2018-08-03T19:35:32.452Z,28.15
2018-08-03T19:38:01.572Z,28.23
2018-08-03T19:40:30.793Z,28.10
2018-08-03T19:42:59.809Z,28.10
2018-08-03T19:45:29.261Z,28.03
2018-08-03T19:47:58.137Z,27.93
2018-08-03T19:50:28.280Z,27.80
2018-08-03T19:52:57.910Z,27.74
2018-08-03T19:55:26.888Z,27.65
2018-08-03T19:57:55.821Z,27.59
2018-08-03T20:00:24.808Z,27.56
2018-08-03T20:02:53.669Z,27.49
2018-08-03T20:05:23.467Z,27.41
2018-08-03T20:07:52.482Z,27.46
2018-08-03T20:10:21.612Z,27.31
2018-08-03T20:12:50.371Z,27.21
2018-08-03T20:15:19.539Z,27.21
2018-08-03T20:17:48.352Z,27.12
2018-08-03T20:20:18.009Z,27.07
2018-08-03T20:22:47.513Z,27.00
2018-08-03T20:25:16.230Z,26.96
2018-08-03T20:27:44.966Z,26.90
2018-08-03T20:30:13.876Z,26.86
2018-08-03T20:32:42.807Z,26.90
2018-08-03T20:35:11.482Z,26.82
2018-08-03T20:37:40.260Z,26.71
2018-08-03T20:40:09.530Z,26.45
2018-08-03T20:42:38.415Z,26.39
2018-08-03T20:45:07.216Z,26.26
2018-08-03T20:47:35.972Z,26.28
2018-08-03T20:50:04.744Z,26.27
2018-08-03T20:52:33.470Z,26.35
2018-08-03T20:55:02.209Z,26.32
2018-08-03T20:57:31.172Z,26.39
2018-08-03T20:59:59.880Z,26.40
2018-08-03T21:02:29.551Z,26.24
2018-08-03T21:04:58.380Z,26.27
2018-08-03T21:07:27.121Z,26.10
2018-08-03T21:09:55.889Z,26.01
2018-08-03T21:12:24.763Z,26.03
2018-08-03T21:14:53.626Z,26.12
2018-08-03T21:17:22.393Z,26.06
2018-08-03T21:19:51.350Z,26.15
2018-08-03T21:22:20.095Z,26.07
2018-08-03T21:24:49.014Z,25.93
2018-08-03T21:27:18.626Z,25.74
2018-08-03T21:29:47.670Z,25.76
2018-08-03T21:32:16.374Z,25.54
2018-08-03T21:34:45.085Z,25.57
2018-08-03T21:37:14.032Z,25.53
2018-08-03T21:39:42.803Z,25.43
2018-08-03T21:42:11.578Z,25.38
2018-08-03T21:44:40.324Z,25.31
2018-08-03T21:47:09.132Z,25.33
2018-08-03T21:49:37.986Z,25.33
2018-08-03T21:52:06.723Z,25.29
2018-08-03T21:54:35.476Z,25.32
2018-08-03T21:57:04.604Z,25.44
2018-08-03T21:59:33.332Z,25.40
2018-08-03T22:02:02.057Z,25.39
2018-08-03T22:04:30.805Z,25.33
2018-08-03T22:06:59.575Z,25.32
2018-08-03T22:09:28.307Z,25.30
2018-08-03T22:11:57.021Z,25.34
2018-08-03T22:14:26.599Z,25.30
2018-08-03T22:16:55.529Z,25.15
2018-08-03T22:19:24.465Z,25.43
2018-08-03T22:21:53.219Z,25.21
2018-08-03T22:24:21.957Z,25.28
2018-08-03T22:26:50.704Z,25.31
2018-08-03T22:29:19.440Z,25.31
2018-08-03T22:31:48.246Z,25.31
2018-08-03T22:34:17.116Z,25.35
2018-08-03T22:36:45.905Z,25.39
2018-08-03T22:39:14.747Z,25.31
2018-08-03T22:41:43.656Z,25.36
2018-08-03T22:44:12.341Z,25.29
2018-08-03T22:46:41.277Z,25.38
2018-08-03T22:49:09.915Z,25.48
2018-08-03T22:51:38.661Z,25.61
2018-08-03T22:54:07.319Z,25.62
2018-08-03T22:56:35.967Z,25.59
2018-08-03T22:59:04.708Z,25.65
2018-08-03T23:01:33.406Z,25.78
2018-08-03T23:04:02.141Z,25.80
2018-08-03T23:06:30.920Z,25.77
2018-08-03T23:08:59.602Z,25.71
2018-08-03T23:11:28.313Z,25.68
2018-08-03T23:13:57.086Z,25.77
2018-08-03T23:16:25.849Z,25.97
2018-08-03T23:18:54.582Z,25.82
2018-08-03T23:21:23.199Z,25.66
2018-08-03T23:23:51.964Z,25.94
2018-08-03T23:26:20.674Z,25.83
2018-08-03T23:28:49.429Z,25.78
2018-08-03T23:31:18.190Z,25.48
2018-08-03T23:33:46.901Z,25.43
2018-08-03T23:36:15.560Z,25.58
2018-08-03T23:38:44.269Z,25.40
2018-08-03T23:41:12.925Z,25.48
2018-08-03T23:43:41.696Z,25.31
2018-08-03T23:46:10.352Z,25.28
2018-08-03T23:48:39.091Z,25.29
2018-08-03T23:51:07.760Z,25.24
2018-08-03T23:53:36.543Z,25.15
2018-08-03T23:56:05.366Z,25.21
2018-08-03T23:58:34.068Z,25.15
